S/y Tatsu — MKEM9 — position and weather

sailwx.info

Track history (hours):
 
Tides and Currents Weather Stations Pressure Air Temp Water Temp Dewpoint Dewpoint Depression Visibility Wind Speed Wind Dir Waves Ship Positions

S/y Tatsu

Last reported at 2015-Oct-11 16:12 UTC. Time now 2016-Feb-07 21:54 UTC.
Position N 50°47' W 001°07'.
Warning: this ship's position is months out of date.

Length 11 m.

Type: Sailing vessel. MMSI: 235071049.

Date/timePositionNaut miles runAvg speedWind from/ knotsBaromVisibWave heightAir tempDewpointWater temp
2015-Oct-11 16:12N 50°47' W 001°07'0 0.0
2015-Oct-11 15:33N 50°47' W 001°07'3 3.2
2015-Oct-11 14:33N 50°46' W 001°11'12 3.0
2015-Oct-11 10:32N 50°44' W 001°30'10 0.5
2015-Oct-10 13:32N 50°46' W 001°14'2 0.6
2015-Oct-10 10:29N 50°44' W 001°13'4 3.9
2015-Oct-10 09:33N 50°46' W 001°08'1 1.4
2015-Oct-10 08:33N 50°47' W 001°07'0 0.0
2015-Oct-10 07:30N 50°47' W 001°07'0 0.0
2015-Oct-09 18:11N 50°47' W 001°07'0 0.0
2015-Oct-09 17:32N 50°47' W 001°07'0 0.0
2015-Oct-09 16:32N 50°47' W 001°07'0 0.0
2015-Oct-09 15:32N 50°47' W 001°07'0 0.0
2015-Oct-09 14:33N 50°47' W 001°07'  
Track history (hours):
 
Tides and Currents Weather Stations Pressure Air Temp Water Temp Dewpoint Dewpoint Depression Visibility Wind Speed Wind Dir Waves Ship Positions

S/y Tatsu

Last reported at 2015-Oct-11 16:12 UTC. Time now 2016-Feb-07 21:54 UTC.
Position N 50°47' W 001°07'.
Warning: this ship's position is months out of date.

Length 11 m.

Type: Sailing vessel. MMSI: 235071049.

Date/timePositionNaut miles runAvg speedWind from/ knotsBaromVisibWave heightAir tempDewpointWater temp
2015-Oct-11 16:12N 50°47' W 001°07'0 0.0
2015-Oct-11 15:33N 50°47' W 001°07'3 3.2
2015-Oct-11 14:33N 50°46' W 001°11'12 3.0
2015-Oct-11 10:32N 50°44' W 001°30'10 0.5
2015-Oct-10 13:32N 50°46' W 001°14'2 0.6
2015-Oct-10 10:29N 50°44' W 001°13'4 3.9
2015-Oct-10 09:33N 50°46' W 001°08'1 1.4
2015-Oct-10 08:33N 50°47' W 001°07'0 0.0
2015-Oct-10 07:30N 50°47' W 001°07'0 0.0
2015-Oct-09 18:11N 50°47' W 001°07'0 0.0
2015-Oct-09 17:32N 50°47' W 001°07'0 0.0
2015-Oct-09 16:32N 50°47' W 001°07'0 0.0
2015-Oct-09 15:32N 50°47' W 001°07'0 0.0
2015-Oct-09 14:33N 50°47' W 001°07'  

Dump ship's entire track history